National Weather Service Raw Text Product

Displaying AFOS PIL: TAFFOD Received: 2018-01-12 05:30 UTC


692 
FTUS43 KDMX 120530 CCA
TAFFOD
TAF COR
KFOD 120530Z 1206/1306 34013KT P6SM SCT014
     FM120900 35009KT P6SM SKC
     FM122300 36006KT P6SM BKN110=